createdAt,value
2022-09-03T00:01:05.276Z,7.28
2022-09-03T00:03:44.363Z,7.30
2022-09-03T00:06:20.805Z,10.48
2022-09-03T00:09:31.023Z,9.43
2022-09-03T00:12:16.617Z,14.10
2022-09-03T00:14:53.071Z,10.43
2022-09-03T00:17:25.597Z,12.73
2022-09-03T00:20:22.658Z,11.38
2022-09-03T00:22:54.244Z,12.68
2022-09-03T00:25:34.360Z,15.02
2022-09-03T00:28:04.950Z,12.15
2022-09-03T00:30:33.941Z,14.57
2022-09-03T00:33:10.889Z,10.95
2022-09-03T00:35:49.978Z,12.18
2022-09-03T00:38:16.930Z,15.52
2022-09-03T00:40:59.908Z,13.13
2022-09-03T00:43:38.866Z,13.13
2022-09-03T00:46:10.287Z,15.32
2022-09-03T00:48:56.116Z,16.48
2022-09-03T00:51:39.508Z,13.63
2022-09-03T00:54:30.663Z,12.77
2022-09-03T00:57:25.832Z,16.63
2022-09-03T00:59:57.667Z,13.60
2022-09-03T01:02:57.831Z,17.47
2022-09-03T01:05:31.995Z,18.60
2022-09-03T01:08:08.436Z,16.92
2022-09-03T01:10:57.114Z,17.65
2022-09-03T01:13:45.797Z,16.25
2022-09-03T01:16:15.497Z,14.15
2022-09-03T01:18:57.098Z,15.70
2022-09-03T01:21:43.859Z,15.10
2022-09-03T01:24:59.082Z,17.77
2022-09-03T01:27:44.851Z,15.73
2022-09-03T01:30:18.679Z,16.85
2022-09-03T01:33:27.235Z,16.85
2022-09-03T01:35:58.603Z,18.23
2022-09-03T01:39:02.119Z,17.90
2022-09-03T01:42:09.743Z,17.15
2022-09-03T01:45:07.857Z,19.48
2022-09-03T01:47:49.755Z,18.23
2022-09-03T01:50:41.264Z,22.08
2022-09-03T01:53:33.083Z,18.77
2022-09-03T01:56:18.023Z,21.45
2022-09-03T01:58:48.676Z,19.98
2022-09-03T02:01:27.031Z,20.60
2022-09-03T02:03:59.756Z,20.00
2022-09-03T02:08:59.506Z,21.70
2022-09-03T02:11:26.746Z,25.05
2022-09-03T02:14:00.507Z,27.52
2022-09-03T02:16:33.256Z,24.10
2022-09-03T02:19:04.356Z,26.85
2022-09-03T02:21:37.432Z,25.58
2022-09-03T02:24:05.363Z,22.25
2022-09-03T02:26:32.281Z,26.30
2022-09-03T02:29:01.380Z,22.15
2022-09-03T02:31:29.081Z,23.38
2022-09-03T02:33:58.021Z,23.80
2022-09-03T02:36:41.153Z,27.88
2022-09-03T02:39:08.181Z,29.45
2022-09-03T02:41:35.284Z,24.92
2022-09-03T02:44:17.464Z,26.05
2022-09-03T02:46:55.839Z,27.45
2022-09-03T02:49:22.725Z,26.77
2022-09-03T02:51:49.764Z,31.23
2022-09-03T02:54:20.915Z,26.40
2022-09-03T02:56:49.948Z,30.65
2022-09-03T02:59:18.147Z,27.15
2022-09-03T03:01:46.435Z,26.48
2022-09-03T03:04:14.031Z,26.95
2022-09-03T03:06:40.820Z,26.40
2022-09-03T03:09:08.759Z,26.33
2022-09-03T03:11:37.228Z,30.00
2022-09-03T03:14:04.163Z,29.58
2022-09-03T03:16:30.926Z,26.45
2022-09-03T03:18:58.543Z,25.60
2022-09-03T03:21:25.384Z,26.48
2022-09-03T03:23:52.243Z,26.70
2022-09-03T03:26:21.566Z,27.80
2022-09-03T03:28:49.486Z,26.83
2022-09-03T03:31:21.538Z,32.00
2022-09-03T03:33:59.593Z,28.38
2022-09-03T03:36:29.807Z,25.95
2022-09-03T03:38:58.729Z,25.63
2022-09-03T03:41:34.294Z,24.90
2022-09-03T03:44:03.825Z,23.58
2022-09-03T03:46:50.934Z,26.55
2022-09-03T03:49:21.062Z,22.45
2022-09-03T03:51:48.163Z,23.35
2022-09-03T03:54:17.562Z,24.98
2022-09-03T03:56:44.653Z,26.05
2022-09-03T03:59:17.669Z,26.63
2022-09-03T04:01:44.588Z,22.15
2022-09-03T04:04:11.495Z,25.10
2022-09-03T04:06:38.270Z,25.55
2022-09-03T04:09:05.081Z,22.55
2022-09-03T04:11:32.104Z,21.05
2022-09-03T04:13:58.839Z,24.33
2022-09-03T04:16:29.265Z,21.48
2022-09-03T04:18:57.069Z,20.35
2022-09-03T04:21:28.890Z,20.55
2022-09-03T04:23:56.499Z,24.30
2022-09-03T04:26:26.292Z,22.58
2022-09-03T04:28:53.223Z,22.35
2022-09-03T04:31:21.073Z,21.45
2022-09-03T04:33:48.090Z,28.83
2022-09-03T04:36:17.390Z,26.98
2022-09-03T04:38:46.913Z,29.42
2022-09-03T04:41:24.967Z,28.63
2022-09-03T04:43:53.211Z,33.10
2022-09-03T04:46:21.662Z,29.98
2022-09-03T04:48:52.996Z,30.95
2022-09-03T04:51:25.265Z,29.13
2022-09-03T04:53:57.310Z,28.90
2022-09-03T04:56:27.368Z,29.85
2022-09-03T04:58:57.263Z,27.88
2022-09-03T05:01:27.152Z,30.23
2022-09-03T05:03:55.795Z,28.45
2022-09-03T05:06:22.768Z,29.38
2022-09-03T05:08:50.878Z,31.35
2022-09-03T05:11:18.214Z,34.13
2022-09-03T05:13:49.227Z,31.13
2022-09-03T05:16:17.360Z,37.70
2022-09-03T05:18:45.217Z,32.67
2022-09-03T05:21:14.924Z,31.90
2022-09-03T05:23:44.420Z,32.00
2022-09-03T05:26:15.595Z,34.30
2022-09-03T05:28:43.293Z,34.47
2022-09-03T05:31:12.811Z,34.75
2022-09-03T05:33:45.035Z,36.65
2022-09-03T05:36:14.545Z,41.13
2022-09-03T05:38:41.341Z,41.30
2022-09-03T05:41:10.891Z,41.58
2022-09-03T05:43:38.164Z,42.58
2022-09-03T05:46:14.316Z,42.03
2022-09-03T05:48:41.684Z,41.78
2022-09-03T05:51:16.533Z,40.63
2022-09-03T05:53:46.378Z,44.75
2022-09-03T05:56:18.001Z,44.22
2022-09-03T05:58:47.903Z,44.55
2022-09-03T06:01:20.185Z,45.22
2022-09-03T06:03:49.110Z,50.90
2022-09-03T06:06:16.180Z,50.88
2022-09-03T06:08:45.048Z,51.72
2022-09-03T06:11:12.056Z,52.88
2022-09-03T06:13:38.814Z,52.97
2022-09-03T06:16:07.786Z,50.97
2022-09-03T06:18:34.765Z,53.97
2022-09-03T06:21:06.710Z,55.58
2022-09-03T06:23:36.279Z,51.60
2022-09-03T06:26:13.552Z,53.70
2022-09-03T06:28:43.633Z,57.97
2022-09-03T06:31:15.759Z,57.47
2022-09-03T06:33:43.276Z,48.60
2022-09-03T06:36:13.576Z,55.00
2022-09-03T06:38:40.772Z,49.42
2022-09-03T06:41:21.419Z,47.45
2022-09-03T06:43:49.381Z,49.30
2022-09-03T06:46:19.203Z,51.17
2022-09-03T06:48:47.470Z,53.55
2022-09-03T06:51:19.435Z,55.13
2022-09-03T06:53:52.522Z,51.25
2022-09-03T06:56:29.207Z,51.47
2022-09-03T06:59:32.207Z,46.47
2022-09-03T07:02:01.060Z,46.70
2022-09-03T07:04:27.959Z,48.85
2022-09-03T07:06:55.994Z,45.30
2022-09-03T07:09:22.868Z,42.28
2022-09-03T07:11:49.968Z,43.03
2022-09-03T07:14:20.493Z,44.53
2022-09-03T07:16:49.393Z,43.72
2022-09-03T07:19:16.661Z,53.22
2022-09-03T07:21:48.848Z,46.47
2022-09-03T07:24:17.019Z,46.35
2022-09-03T07:26:48.922Z,45.45
2022-09-03T07:29:20.662Z,44.55
2022-09-03T07:31:51.949Z,49.42
2022-09-03T07:34:19.848Z,38.80
2022-09-03T07:36:50.158Z,40.25
2022-09-03T07:39:18.406Z,33.53
2022-09-03T07:41:46.925Z,33.90
2022-09-03T07:44:16.432Z,33.05
2022-09-03T07:46:45.705Z,31.20
2022-09-03T07:49:12.607Z,32.92
2022-09-03T07:51:40.024Z,31.35
2022-09-03T07:54:10.174Z,27.25
2022-09-03T07:56:38.445Z,26.88
2022-09-03T07:59:06.272Z,28.02
2022-09-03T08:01:34.344Z,30.77
2022-09-03T08:04:02.310Z,32.15
2022-09-03T08:06:30.828Z,37.05
2022-09-03T08:09:05.094Z,29.70
2022-09-03T08:11:36.724Z,25.85
2022-09-03T08:14:08.924Z,25.55
2022-09-03T08:16:38.556Z,23.98
2022-09-03T08:19:05.785Z,27.77
2022-09-03T08:21:32.653Z,24.25
2022-09-03T08:24:06.907Z,23.30
2022-09-03T08:26:35.846Z,21.70
2022-09-03T08:29:03.865Z,23.55
2022-09-03T08:31:32.595Z,21.50
2022-09-03T08:34:07.037Z,21.83
2022-09-03T08:36:36.620Z,15.60
2022-09-03T08:39:12.367Z,20.45
2022-09-03T08:41:51.278Z,16.80
2022-09-03T08:44:33.447Z,12.07
2022-09-03T08:47:14.765Z,13.02
2022-09-03T08:49:55.652Z,14.45
2022-09-03T08:52:32.679Z,12.23
2022-09-03T08:55:20.678Z,12.88
2022-09-03T08:57:50.703Z,13.80
2022-09-03T09:00:19.302Z,12.80
2022-09-03T09:02:56.837Z,12.55
2022-09-03T09:05:36.677Z,11.70
2022-09-03T09:08:18.215Z,13.50
2022-09-03T09:10:49.376Z,15.00
2022-09-03T09:13:38.741Z,11.10
2022-09-03T09:16:15.831Z,13.57
2022-09-03T09:19:05.668Z,11.07
2022-09-03T09:21:46.357Z,7.35
2022-09-03T09:24:26.783Z,6.25
2022-09-03T09:26:59.500Z,8.60
2022-09-03T09:29:29.605Z,8.40
2022-09-03T09:31:57.151Z,7.45
2022-09-03T09:34:24.269Z,9.57
2022-09-03T09:36:53.414Z,8.07
2022-09-03T09:39:21.093Z,8.40
2022-09-03T09:42:08.471Z,7.85
2022-09-03T09:44:41.697Z,8.25
2022-09-03T09:47:12.154Z,8.52
2022-09-03T09:49:53.539Z,7.30
2022-09-03T09:52:25.911Z,9.40
2022-09-03T09:54:55.167Z,7.80
2022-09-03T09:57:25.431Z,8.30
2022-09-03T10:00:12.982Z,8.77
2022-09-03T10:02:47.509Z,9.45
2022-09-03T10:05:28.197Z,8.35
2022-09-03T10:08:00.987Z,8.02
2022-09-03T10:10:35.213Z,9.32
2022-09-03T10:13:11.400Z,9.20
2022-09-03T10:16:14.480Z,8.18
2022-09-03T10:21:47.775Z,8.45
2022-09-03T10:24:25.536Z,6.95
2022-09-03T10:27:08.547Z,9.35
2022-09-03T10:30:01.020Z,7.80
2022-09-03T10:32:47.781Z,5.72
2022-09-03T10:35:29.555Z,5.55
2022-09-03T10:38:18.142Z,5.03
2022-09-03T10:41:05.896Z,10.00
2022-09-03T10:44:01.675Z,6.32
2022-09-03T10:46:57.710Z,3.25
2022-09-03T10:49:46.315Z,3.85
2022-09-03T10:52:27.126Z,43.08
2022-09-03T10:55:12.550Z,6.25
2022-09-03T10:57:57.767Z,6.95
2022-09-03T11:00:26.323Z,18.85
2022-09-03T11:03:21.364Z,22.63
2022-09-03T11:06:12.439Z,8.63
2022-09-03T11:08:44.871Z,5.60
2022-09-03T11:11:20.370Z,3.65
2022-09-03T11:13:52.000Z,7.20
2022-09-03T11:16:26.006Z,5.50
2022-09-03T11:19:02.830Z,6.88
2022-09-03T11:21:32.177Z,3.88
2022-09-03T11:24:13.762Z,3.60
2022-09-03T11:26:45.002Z,5.07
2022-09-03T11:29:25.635Z,6.28
2022-09-03T11:32:21.976Z,2.90
2022-09-03T11:34:54.829Z,3.33
2022-09-03T11:37:26.751Z,6.60
2022-09-03T11:40:04.749Z,2.92
2022-09-03T11:42:41.782Z,4.70
2022-09-03T11:45:26.933Z,4.70
2022-09-03T11:47:54.475Z,5.57
2022-09-03T11:50:26.936Z,5.85
2022-09-03T11:55:55.625Z,4.30
2022-09-03T11:58:34.795Z,5.97
2022-09-03T12:01:04.557Z,5.47
2022-09-03T12:03:49.292Z,6.28
2022-09-03T12:06:38.445Z,5.13
2022-09-03T12:09:28.793Z,2.88
2022-09-03T12:12:19.654Z,3.35
2022-09-03T12:15:16.719Z,1.80
2022-09-03T12:18:20.562Z,3.45
2022-09-03T12:20:54.161Z,3.55
2022-09-03T12:23:51.923Z,1.60
2022-09-03T12:26:27.678Z,1.48
2022-09-03T12:28:59.834Z,3.90
2022-09-03T12:31:30.369Z,3.83
2022-09-03T12:34:01.243Z,4.18
2022-09-03T12:36:42.941Z,3.25
2022-09-03T12:42:20.903Z,2.55
2022-09-03T12:44:47.823Z,1.67
2022-09-03T12:47:37.400Z,2.20
2022-09-03T12:50:17.023Z,3.75
2022-09-03T12:53:00.099Z,2.00
2022-09-03T12:55:42.551Z,2.83
2022-09-03T12:58:15.604Z,2.10
2022-09-03T13:00:57.414Z,4.25
2022-09-03T13:03:38.914Z,3.33
2022-09-03T13:06:11.483Z,4.40
2022-09-03T13:11:25.307Z,3.45
2022-09-03T13:13:57.176Z,3.97
2022-09-03T13:16:39.296Z,4.63
2022-09-03T13:19:16.622Z,5.32
2022-09-03T13:21:49.098Z,6.57
2022-09-03T13:27:10.594Z,5.63
2022-09-03T13:30:06.032Z,5.07
2022-09-03T13:32:38.379Z,6.22
2022-09-03T13:35:40.335Z,3.50
2022-09-03T13:38:09.939Z,3.90
2022-09-03T13:40:46.888Z,2.95
2022-09-03T13:43:36.576Z,4.53
2022-09-03T13:46:08.858Z,4.70
2022-09-03T13:49:04.518Z,5.18
2022-09-03T13:51:43.957Z,2.97
2022-09-03T13:54:49.540Z,3.72
2022-09-03T13:57:22.720Z,2.95
2022-09-03T14:00:00.353Z,3.33
2022-09-03T14:02:29.061Z,7.20
2022-09-03T14:05:04.370Z,3.72
2022-09-03T14:08:08.638Z,4.47
2022-09-03T14:10:38.440Z,4.32
2022-09-03T14:13:18.106Z,6.80
2022-09-03T14:16:20.057Z,3.85
2022-09-03T14:18:59.837Z,2.95
2022-09-03T14:21:33.604Z,4.35
2022-09-03T14:24:12.391Z,4.72
2022-09-03T14:26:52.237Z,4.00
2022-09-03T14:29:24.918Z,7.75
2022-09-03T14:32:03.886Z,5.80
2022-09-03T14:34:35.706Z,3.45
2022-09-03T14:37:28.892Z,4.88
2022-09-03T14:40:02.146Z,2.25
2022-09-03T14:42:47.314Z,3.50
2022-09-03T14:45:47.697Z,2.47
2022-09-03T14:48:51.966Z,5.32
2022-09-03T14:51:56.214Z,3.05
2022-09-03T14:55:10.573Z,3.80
2022-09-03T14:58:18.345Z,2.67
2022-09-03T15:01:01.812Z,2.88
2022-09-03T15:03:50.597Z,4.03
2022-09-03T15:06:32.425Z,2.83
2022-09-03T15:09:19.187Z,2.67
2022-09-03T15:12:08.319Z,3.55
2022-09-03T15:14:54.464Z,3.08
2022-09-03T15:17:49.275Z,4.03
2022-09-03T15:20:31.599Z,2.83
2022-09-03T15:23:13.505Z,2.63
2022-09-03T15:26:24.945Z,2.45
2022-09-03T15:29:11.634Z,3.90
2022-09-03T15:31:44.870Z,4.82
2022-09-03T15:34:14.528Z,3.03
2022-09-03T15:36:49.781Z,3.63
2022-09-03T15:39:27.040Z,5.03
2022-09-03T15:41:59.282Z,3.33
2022-09-03T15:44:31.764Z,3.45
2022-09-03T15:50:05.341Z,3.00
2022-09-03T15:52:47.338Z,5.30
2022-09-03T15:55:39.435Z,3.00
2022-09-03T15:58:19.018Z,3.20
2022-09-03T16:01:03.302Z,6.07
2022-09-03T16:03:46.464Z,4.25
2022-09-03T16:06:48.104Z,5.53
2022-09-03T16:10:22.827Z,6.68
2022-09-03T16:13:16.789Z,5.13
2022-09-03T16:16:21.812Z,6.78
2022-09-03T16:19:32.211Z,6.68
2022-09-03T16:22:01.137Z,6.85
2022-09-03T16:25:13.463Z,5.55
2022-09-03T16:28:16.000Z,7.38
2022-09-03T16:31:36.559Z,6.40
2022-09-03T16:34:56.472Z,7.65
2022-09-03T16:38:09.440Z,6.32
2022-09-03T16:41:19.230Z,5.85
2022-09-03T16:44:27.204Z,5.13
2022-09-03T16:47:55.781Z,9.80
2022-09-03T16:51:19.605Z,6.28
2022-09-03T16:54:33.274Z,6.25
2022-09-03T16:57:26.847Z,6.18
2022-09-03T17:00:29.670Z,5.53
2022-09-03T17:03:32.039Z,5.93
2022-09-03T17:06:38.050Z,7.37
2022-09-03T17:09:14.477Z,6.25
2022-09-03T17:12:06.810Z,2.92
2022-09-03T17:14:46.839Z,3.75
2022-09-03T17:17:47.715Z,6.57
2022-09-03T17:20:48.545Z,6.22
2022-09-03T17:23:44.073Z,4.53
2022-09-03T17:26:21.384Z,4.65
2022-09-03T17:29:16.629Z,3.65
2022-09-03T17:31:51.842Z,4.35
2022-09-03T17:34:36.447Z,5.00
2022-09-03T17:37:33.575Z,4.63
2022-09-03T17:40:28.266Z,6.63
2022-09-03T17:43:10.306Z,6.07
2022-09-03T17:45:57.350Z,5.90
2022-09-03T17:48:52.470Z,5.28
2022-09-03T17:51:22.207Z,4.43
2022-09-03T17:54:07.711Z,7.07
2022-09-03T17:56:46.022Z,6.72
2022-09-03T17:59:22.430Z,6.25
2022-09-03T18:01:59.217Z,5.03
2022-09-03T18:04:47.096Z,8.65
2022-09-03T18:07:25.656Z,5.38
2022-09-03T18:10:02.335Z,9.13
2022-09-03T18:12:59.842Z,5.95
2022-09-03T18:15:39.619Z,5.50
2022-09-03T18:18:13.064Z,7.60
2022-09-03T18:21:23.986Z,7.22
2022-09-03T18:24:26.426Z,10.90
2022-09-03T18:27:18.458Z,7.80
2022-09-03T18:30:21.361Z,8.83
2022-09-03T18:33:07.229Z,6.35
2022-09-03T18:35:53.495Z,9.13
2022-09-03T18:38:47.703Z,6.45
2022-09-03T18:41:51.762Z,6.15
2022-09-03T18:44:48.333Z,8.35
2022-09-03T18:48:02.093Z,6.50
2022-09-03T18:51:06.575Z,9.32
2022-09-03T18:54:11.246Z,7.53
2022-09-03T18:57:05.897Z,10.07
2022-09-03T19:00:15.980Z,7.32
2022-09-03T19:03:19.506Z,8.50
2022-09-03T19:06:34.031Z,6.57
2022-09-03T19:09:38.685Z,8.68
2022-09-03T19:12:50.087Z,9.20
2022-09-03T19:15:48.253Z,9.55
2022-09-03T19:18:54.474Z,8.43
2022-09-03T19:22:07.533Z,6.30
2022-09-03T19:24:53.159Z,8.32
2022-09-03T19:27:55.592Z,6.80
2022-09-03T19:31:19.171Z,6.35
2022-09-03T19:34:23.444Z,8.40
2022-09-03T19:37:31.939Z,10.15
2022-09-03T19:40:43.468Z,6.88
2022-09-03T19:43:36.209Z,6.28
2022-09-03T19:46:49.257Z,6.75
2022-09-03T19:50:11.862Z,6.22
2022-09-03T19:53:12.337Z,5.53
2022-09-03T19:56:07.158Z,7.32
2022-09-03T19:58:57.738Z,5.95
2022-09-03T20:01:48.493Z,6.30
2022-09-03T20:04:34.704Z,5.43
2022-09-03T20:07:23.768Z,8.60
2022-09-03T20:10:12.847Z,5.30
2022-09-03T20:12:45.688Z,9.15
2022-09-03T20:15:12.540Z,7.78
2022-09-03T20:18:07.032Z,7.53
2022-09-03T20:20:59.901Z,8.13
2022-09-03T20:23:46.974Z,6.60
2022-09-03T20:26:33.312Z,5.95
2022-09-03T20:29:32.657Z,8.15
2022-09-03T20:32:05.334Z,7.05
2022-09-03T20:34:47.287Z,7.38
2022-09-03T20:37:27.799Z,5.90
2022-09-03T20:40:12.527Z,8.48
2022-09-03T20:42:51.195Z,6.93
2022-09-03T20:45:42.406Z,5.68
2022-09-03T20:51:12.422Z,8.35
2022-09-03T20:53:55.086Z,7.97
2022-09-03T20:56:33.983Z,5.57
2022-09-03T20:59:12.008Z,7.63
2022-09-03T21:01:53.768Z,8.85
2022-09-03T21:04:39.862Z,5.47
2022-09-03T21:07:28.508Z,7.45
2022-09-03T21:10:06.669Z,7.22
2022-09-03T21:12:57.807Z,5.32
2022-09-03T21:15:24.636Z,8.25
2022-09-03T21:18:31.370Z,5.72
2022-09-03T21:21:09.940Z,6.63
2022-09-03T21:24:06.810Z,10.25
2022-09-03T21:26:42.085Z,7.55
2022-09-03T21:29:22.181Z,7.22
2022-09-03T21:32:07.861Z,10.23
2022-09-03T21:34:42.358Z,8.40
2022-09-03T21:37:12.883Z,6.10
2022-09-03T21:39:49.631Z,6.55
2022-09-03T21:42:31.667Z,6.53
2022-09-03T21:45:08.650Z,6.32
2022-09-03T21:47:45.127Z,8.25
2022-09-03T21:50:18.988Z,5.13
2022-09-03T21:53:03.257Z,12.90
2022-09-03T21:55:32.750Z,13.00
2022-09-03T21:58:35.949Z,9.15
2022-09-03T22:03:37.655Z,9.20
2022-09-03T22:06:13.952Z,9.07
2022-09-03T22:08:42.226Z,11.30
2022-09-03T22:11:39.905Z,9.27
2022-09-03T22:14:18.051Z,7.80
2022-09-03T22:17:03.019Z,12.48
2022-09-03T22:19:37.552Z,10.75
2022-09-03T22:22:12.931Z,9.65
2022-09-03T22:24:49.906Z,9.20
2022-09-03T22:27:22.674Z,9.50
2022-09-03T22:30:11.499Z,11.60
2022-09-03T22:32:57.310Z,6.72
2022-09-03T22:35:46.678Z,7.80
2022-09-03T22:38:39.323Z,12.57
2022-09-03T22:41:21.251Z,10.00
2022-09-03T22:44:12.667Z,8.07
2022-09-03T22:47:11.739Z,10.52
2022-09-03T22:50:03.800Z,9.10
2022-09-03T22:52:41.313Z,9.32
2022-09-03T22:55:26.891Z,11.52
2022-09-03T22:58:25.313Z,8.55
2022-09-03T23:01:15.155Z,11.57
2022-09-03T23:03:49.649Z,9.60
2022-09-03T23:06:32.650Z,8.40
2022-09-03T23:09:04.578Z,10.50
2022-09-03T23:11:38.721Z,9.27
2022-09-03T23:14:08.413Z,8.35
2022-09-03T23:17:06.248Z,7.60
2022-09-03T23:19:41.140Z,11.65
2022-09-03T23:22:13.801Z,7.65
2022-09-03T23:27:18.457Z,12.35
2022-09-03T23:29:50.528Z,10.75
2022-09-03T23:32:17.346Z,10.43
2022-09-03T23:34:44.179Z,10.25
2022-09-03T23:37:35.309Z,12.25
2022-09-03T23:40:30.530Z,10.32
2022-09-03T23:43:09.331Z,8.52
2022-09-03T23:46:00.985Z,7.57
2022-09-03T23:48:37.917Z,9.63
2022-09-03T23:51:28.444Z,8.68
2022-09-03T23:54:25.943Z,9.32
2022-09-03T23:57:01.030Z,8.80
2022-09-03T23:59:33.822Z,11.85
